createdAt,value
2023-06-04T00:00:55.519Z,2.25
2023-06-04T00:03:21.943Z,2.85
2023-06-04T00:05:48.512Z,2.08
2023-06-04T00:08:15.034Z,2.25
2023-06-04T00:10:41.679Z,1.80
2023-06-04T00:13:08.182Z,4.50
2023-06-04T00:15:34.541Z,1.10
2023-06-04T00:18:01.194Z,1.00
2023-06-04T00:20:27.682Z,1.98
2023-06-04T00:22:54.122Z,4.65
2023-06-04T00:25:20.478Z,2.08
2023-06-04T00:27:46.855Z,2.28
2023-06-04T00:30:13.664Z,1.63
2023-06-04T00:32:40.669Z,2.05
2023-06-04T00:35:07.407Z,1.90
2023-06-04T00:37:33.795Z,2.70
2023-06-04T00:40:00.269Z,2.17
2023-06-04T00:42:26.671Z,2.88
2023-06-04T00:44:53.100Z,5.32
2023-06-04T00:47:20.989Z,2.45
2023-06-04T00:49:47.548Z,3.28
2023-06-04T00:52:15.658Z,2.25
2023-06-04T00:54:42.261Z,1.08
2023-06-04T00:57:09.828Z,2.08
2023-06-04T00:59:37.553Z,1.98
2023-06-04T01:02:08.853Z,3.63
2023-06-04T01:04:38.629Z,4.53
2023-06-04T01:07:05.681Z,1.70
2023-06-04T01:09:32.131Z,1.20
2023-06-04T01:11:59.986Z,2.22
2023-06-04T01:14:26.954Z,4.30
2023-06-04T01:17:02.676Z,2.38
2023-06-04T01:19:52.248Z,3.63
2023-06-04T01:22:33.665Z,2.17
2023-06-04T01:25:03.482Z,3.38
2023-06-04T01:27:31.015Z,6.53
2023-06-04T01:30:01.586Z,2.13
2023-06-04T01:32:28.681Z,1.67
2023-06-04T01:34:55.344Z,1.80
2023-06-04T01:37:21.884Z,1.60
2023-06-04T01:39:48.259Z,1.95
2023-06-04T01:42:14.655Z,3.58
2023-06-04T01:44:41.152Z,3.88
2023-06-04T01:47:07.533Z,2.03
2023-06-04T01:49:33.912Z,1.38
2023-06-04T01:52:00.304Z,1.65
2023-06-04T01:54:26.960Z,2.05
2023-06-04T01:56:53.332Z,1.60
2023-06-04T01:59:19.699Z,0.90
2023-06-04T02:01:46.126Z,1.88
2023-06-04T02:04:12.557Z,2.20
2023-06-04T02:06:39.026Z,5.72
2023-06-04T02:09:05.422Z,2.95
2023-06-04T02:11:31.821Z,1.65
2023-06-04T02:13:58.361Z,1.83
2023-06-04T02:16:24.800Z,1.50
2023-06-04T02:18:51.287Z,1.38
2023-06-04T02:21:17.656Z,1.80
2023-06-04T02:23:44.020Z,5.28
2023-06-04T02:26:10.594Z,3.03
2023-06-04T02:28:37.065Z,1.65
2023-06-04T02:31:03.453Z,1.45
2023-06-04T02:33:30.262Z,2.75
2023-06-04T02:35:56.864Z,1.90
2023-06-04T02:38:23.216Z,2.95
2023-06-04T02:40:49.658Z,1.73
2023-06-04T02:43:16.481Z,1.52
2023-06-04T02:45:42.916Z,0.85
2023-06-04T02:48:09.557Z,1.40
2023-06-04T02:50:36.242Z,3.72
2023-06-04T02:53:02.698Z,1.77
2023-06-04T02:55:29.043Z,2.35
2023-06-04T02:57:55.429Z,1.67
2023-06-04T03:00:21.934Z,1.27
2023-06-04T03:02:48.949Z,1.33
2023-06-04T03:05:16.086Z,0.77
2023-06-04T03:07:44.346Z,2.88
2023-06-04T03:10:11.437Z,2.40
2023-06-04T03:12:37.921Z,3.30
2023-06-04T03:15:05.101Z,5.28
2023-06-04T03:17:32.801Z,0.65
2023-06-04T03:19:59.221Z,2.28
2023-06-04T03:22:25.801Z,0.90
2023-06-04T03:24:53.385Z,2.08
2023-06-04T03:27:20.701Z,0.73
2023-06-04T03:29:47.147Z,1.17
2023-06-04T03:32:13.929Z,1.52
2023-06-04T03:34:40.490Z,1.25
2023-06-04T03:37:06.958Z,1.17
2023-06-04T03:39:33.442Z,1.27
2023-06-04T03:41:59.898Z,2.55
2023-06-04T03:44:26.316Z,2.63
2023-06-04T03:46:52.714Z,2.65
2023-06-04T03:49:20.493Z,2.90
2023-06-04T03:51:47.083Z,0.73
2023-06-04T03:54:13.605Z,3.08
2023-06-04T03:56:40.461Z,3.03
2023-06-04T03:59:06.902Z,0.90
2023-06-04T04:01:33.294Z,4.00
2023-06-04T04:04:00.029Z,0.60
2023-06-04T04:06:26.531Z,0.80
2023-06-04T04:08:52.889Z,0.50
2023-06-04T04:11:19.307Z,1.38
2023-06-04T04:13:46.754Z,2.75
2023-06-04T04:16:13.416Z,1.40
2023-06-04T04:18:44.710Z,2.00
2023-06-04T04:21:11.630Z,0.65
2023-06-04T04:23:41.027Z,1.55
2023-06-04T04:26:07.541Z,1.13
2023-06-04T04:28:35.589Z,2.05
2023-06-04T04:31:03.536Z,1.30
2023-06-04T04:33:33.631Z,0.55
2023-06-04T04:36:00.855Z,2.95
2023-06-04T04:38:29.500Z,2.30
2023-06-04T04:40:56.568Z,0.90
2023-06-04T04:43:32.709Z,3.15
2023-06-04T04:45:59.583Z,2.13
2023-06-04T04:48:26.945Z,0.82
2023-06-04T04:50:53.799Z,3.88
2023-06-04T04:53:20.250Z,2.00
2023-06-04T04:55:46.652Z,2.97
2023-06-04T04:58:13.268Z,1.73
2023-06-04T05:00:39.717Z,1.30
2023-06-04T05:03:06.439Z,1.80
2023-06-04T05:05:33.247Z,4.38
2023-06-04T05:07:59.826Z,2.25
2023-06-04T05:10:26.403Z,2.00
2023-06-04T05:12:53.955Z,4.47
2023-06-04T05:15:20.735Z,3.33
2023-06-04T05:17:47.952Z,2.75
2023-06-04T05:20:15.512Z,1.88
2023-06-04T05:22:41.975Z,6.50
2023-06-04T05:25:09.522Z,3.75
2023-06-04T05:27:36.354Z,1.83
2023-06-04T05:30:03.826Z,2.45
2023-06-04T05:32:31.444Z,4.88
2023-06-04T05:34:58.177Z,2.33
2023-06-04T05:37:31.026Z,2.80
2023-06-04T05:39:57.830Z,3.53
2023-06-04T05:42:25.034Z,3.35
2023-06-04T05:44:51.545Z,2.17
2023-06-04T05:47:20.749Z,1.02
2023-06-04T05:49:47.200Z,2.55
2023-06-04T05:52:13.627Z,7.75
2023-06-04T05:54:40.097Z,4.40
2023-06-04T05:57:08.911Z,2.88
2023-06-04T05:59:35.489Z,3.20
2023-06-04T06:02:02.057Z,5.95
2023-06-04T06:04:28.523Z,3.88
2023-06-04T06:06:54.943Z,4.85
2023-06-04T06:09:21.324Z,3.25
2023-06-04T06:11:47.801Z,2.08
2023-06-04T06:14:14.217Z,3.63
2023-06-04T06:16:41.399Z,5.18
2023-06-04T06:19:07.970Z,6.18
2023-06-04T06:21:34.408Z,3.38
2023-06-04T06:24:00.979Z,3.30
2023-06-04T06:26:27.403Z,5.68
2023-06-04T06:28:53.765Z,2.90
2023-06-04T06:31:20.196Z,3.88
2023-06-04T06:33:46.662Z,2.50
2023-06-04T06:36:13.349Z,4.05
2023-06-04T06:38:39.991Z,4.20
2023-06-04T06:41:06.893Z,3.58
2023-06-04T06:43:34.439Z,1.50
2023-06-04T06:46:00.966Z,2.78
2023-06-04T06:48:27.347Z,4.22
2023-06-04T06:50:54.658Z,3.15
2023-06-04T06:53:21.195Z,5.97
2023-06-04T06:55:47.613Z,4.45
2023-06-04T06:58:14.087Z,1.38
2023-06-04T07:00:40.814Z,3.05
2023-06-04T07:03:09.424Z,2.42
2023-06-04T07:05:35.846Z,1.08
2023-06-04T07:08:03.129Z,2.42
2023-06-04T07:10:30.559Z,1.58
2023-06-04T07:12:56.999Z,3.28
2023-06-04T07:15:23.545Z,2.15
2023-06-04T07:17:49.966Z,2.20
2023-06-04T07:20:16.559Z,1.67
2023-06-04T07:22:42.976Z,5.30
2023-06-04T07:25:09.776Z,3.38
2023-06-04T07:27:36.362Z,2.13
2023-06-04T07:30:03.185Z,2.35
2023-06-04T07:32:29.680Z,2.08
2023-06-04T07:34:56.156Z,2.17
2023-06-04T07:37:22.745Z,3.67
2023-06-04T07:39:49.371Z,4.35
2023-06-04T07:42:15.902Z,1.80
2023-06-04T07:44:42.444Z,2.60
2023-06-04T07:47:08.873Z,5.95
2023-06-04T07:49:35.363Z,3.85
2023-06-04T07:52:02.071Z,1.75
2023-06-04T07:54:31.792Z,9.80
2023-06-04T07:56:59.178Z,5.05
2023-06-04T07:59:25.682Z,2.20
2023-06-04T08:01:55.304Z,3.03
2023-06-04T08:04:21.764Z,3.67
2023-06-04T08:06:48.383Z,4.70
2023-06-04T08:09:14.860Z,2.35
2023-06-04T08:11:42.704Z,2.60
2023-06-04T08:14:09.061Z,2.28
2023-06-04T08:16:35.513Z,8.95
2023-06-04T08:19:01.900Z,3.92
2023-06-04T08:21:29.054Z,1.42
2023-06-04T08:23:56.537Z,2.28
2023-06-04T08:26:24.204Z,3.53
2023-06-04T08:28:50.790Z,1.48
2023-06-04T08:31:18.132Z,2.25
2023-06-04T08:33:47.993Z,3.38
2023-06-04T08:36:14.727Z,2.78
2023-06-04T08:38:41.419Z,3.85
2023-06-04T08:41:16.152Z,2.35
2023-06-04T08:43:44.871Z,1.25
2023-06-04T08:46:12.633Z,3.50
2023-06-04T08:48:39.713Z,2.78
2023-06-04T08:51:06.996Z,2.78
2023-06-04T08:53:33.905Z,7.80
2023-06-04T08:56:00.412Z,4.95
2023-06-04T08:58:27.156Z,6.60
2023-06-04T09:00:53.564Z,1.90
2023-06-04T09:03:21.839Z,2.83
2023-06-04T09:05:49.058Z,1.90
2023-06-04T09:08:16.952Z,4.07
2023-06-04T09:10:45.766Z,3.75
2023-06-04T09:13:12.353Z,4.45
2023-06-04T09:15:38.727Z,6.05
2023-06-04T09:18:05.194Z,4.13
2023-06-04T09:20:33.856Z,2.58
2023-06-04T09:23:00.267Z,4.43
2023-06-04T09:25:27.736Z,3.78
2023-06-04T09:27:56.556Z,3.78
2023-06-04T09:30:23.727Z,1.20
2023-06-04T09:32:50.197Z,1.63
2023-06-04T09:35:18.443Z,2.08
2023-06-04T09:37:57.305Z,5.20
2023-06-04T09:40:24.221Z,5.97
2023-06-04T09:42:55.510Z,3.25
2023-06-04T09:45:30.073Z,2.28
2023-06-04T09:47:56.562Z,2.92
2023-06-04T09:50:27.187Z,3.05
2023-06-04T09:52:53.910Z,3.58
2023-06-04T09:55:21.314Z,4.15
2023-06-04T09:57:48.564Z,2.28
2023-06-04T10:00:17.064Z,5.85
2023-06-04T10:02:44.443Z,1.58
2023-06-04T10:05:13.149Z,3.50
2023-06-04T10:07:40.085Z,3.70
2023-06-04T10:10:06.912Z,1.88
2023-06-04T10:12:36.885Z,4.53
2023-06-04T10:15:05.036Z,4.47
2023-06-04T10:17:31.712Z,2.55
2023-06-04T10:19:59.184Z,1.00
2023-06-04T10:22:25.801Z,3.90
2023-06-04T10:24:52.292Z,2.92
2023-06-04T10:27:19.058Z,3.03
2023-06-04T10:29:46.592Z,1.77
2023-06-04T10:32:13.352Z,3.95
2023-06-04T10:34:39.926Z,4.28
2023-06-04T10:37:06.927Z,3.58
2023-06-04T10:39:33.731Z,3.08
2023-06-04T10:42:03.764Z,2.92
2023-06-04T10:44:44.369Z,4.38
2023-06-04T10:47:19.296Z,4.88
2023-06-04T10:49:45.876Z,6.82
2023-06-04T10:52:12.377Z,3.38
2023-06-04T10:54:38.777Z,2.88
2023-06-04T10:57:11.624Z,2.00
2023-06-04T10:59:37.997Z,4.05
2023-06-04T11:02:05.679Z,3.05
2023-06-04T11:04:32.700Z,1.80
2023-06-04T11:07:03.321Z,2.70
2023-06-04T11:09:29.784Z,1.90
2023-06-04T11:11:59.817Z,4.85
2023-06-04T11:14:26.259Z,5.05
2023-06-04T11:16:52.775Z,5.32
2023-06-04T11:19:19.470Z,1.27
2023-06-04T11:21:46.333Z,2.65
2023-06-04T11:24:15.521Z,4.20
2023-06-04T11:26:48.036Z,1.83
2023-06-04T11:29:20.469Z,2.03
2023-06-04T11:31:47.856Z,5.68
2023-06-04T11:34:31.882Z,3.97
2023-06-04T11:37:08.334Z,6.20
2023-06-04T11:39:40.012Z,2.45
2023-06-04T11:42:07.273Z,1.63
2023-06-04T11:44:33.966Z,7.32
2023-06-04T11:47:00.684Z,4.03
2023-06-04T11:49:28.630Z,2.30
2023-06-04T11:51:55.693Z,3.72
2023-06-04T11:54:22.828Z,2.00
2023-06-04T11:56:50.043Z,3.95
2023-06-04T11:59:16.975Z,3.67
2023-06-04T12:01:44.067Z,2.75
2023-06-04T12:04:17.502Z,1.70
2023-06-04T12:06:54.007Z,3.17
2023-06-04T12:09:21.460Z,2.33
2023-06-04T12:11:47.838Z,4.22
2023-06-04T12:14:17.174Z,3.20
2023-06-04T12:16:43.590Z,4.45
2023-06-04T12:19:11.002Z,2.17
2023-06-04T12:21:37.595Z,3.88
2023-06-04T12:24:07.250Z,4.38
2023-06-04T12:26:38.421Z,1.42
2023-06-04T12:29:25.085Z,2.83
2023-06-04T12:32:01.988Z,3.03
2023-06-04T12:34:28.375Z,2.35
2023-06-04T12:36:54.729Z,6.20
2023-06-04T12:39:21.138Z,3.83
2023-06-04T12:41:47.819Z,2.67
2023-06-04T12:44:14.270Z,3.17
2023-06-04T12:46:40.685Z,2.00
2023-06-04T12:49:07.099Z,4.07
2023-06-04T12:51:33.565Z,6.53
2023-06-04T12:54:00.419Z,8.13
2023-06-04T12:56:27.498Z,12.25
2023-06-04T12:58:53.900Z,9.00
2023-06-04T13:01:20.654Z,5.22
2023-06-04T13:03:47.179Z,7.72
2023-06-04T13:06:13.732Z,10.95
2023-06-04T13:08:40.128Z,3.90
2023-06-04T13:11:07.730Z,11.98
2023-06-04T13:13:34.259Z,3.65
2023-06-04T13:16:00.757Z,4.82
2023-06-04T13:18:27.302Z,8.02
2023-06-04T13:20:53.782Z,6.55
2023-06-04T13:23:20.272Z,10.30
2023-06-04T13:25:46.722Z,9.05
2023-06-04T13:28:13.205Z,4.15
2023-06-04T13:30:39.700Z,8.25
2023-06-04T13:33:06.217Z,5.30
2023-06-04T13:35:32.695Z,4.15
2023-06-04T13:37:59.097Z,8.55
2023-06-04T13:40:25.758Z,6.53
2023-06-04T13:42:52.122Z,4.03
2023-06-04T13:45:21.105Z,4.65
2023-06-04T13:47:49.245Z,6.78
2023-06-04T13:50:15.937Z,7.47
2023-06-04T13:52:42.307Z,6.03
2023-06-04T13:55:08.924Z,6.13
2023-06-04T13:57:35.281Z,7.22
2023-06-04T14:00:01.854Z,17.00
2023-06-04T14:02:29.471Z,7.70
2023-06-04T14:04:56.099Z,7.50
2023-06-04T14:07:23.301Z,7.43
2023-06-04T14:09:55.250Z,6.00
2023-06-04T14:12:25.155Z,8.07
2023-06-04T14:14:51.722Z,4.88
2023-06-04T14:17:18.309Z,6.78
2023-06-04T14:19:44.675Z,6.00
2023-06-04T14:22:12.138Z,4.78
2023-06-04T14:24:39.301Z,6.88
2023-06-04T14:27:07.719Z,9.85
2023-06-04T14:29:35.639Z,10.05
2023-06-04T14:32:02.181Z,9.07
2023-06-04T14:34:28.670Z,7.13
2023-06-04T14:36:55.394Z,8.50
2023-06-04T14:39:23.020Z,9.88
2023-06-04T14:41:50.384Z,3.95
2023-06-04T14:44:16.802Z,7.20
2023-06-04T14:46:43.389Z,5.00
2023-06-04T14:49:09.949Z,5.15
2023-06-04T14:51:37.541Z,9.70
2023-06-04T14:54:04.065Z,7.38
2023-06-04T14:56:31.537Z,9.70
2023-06-04T14:58:58.009Z,7.80
2023-06-04T15:01:25.168Z,9.38
2023-06-04T15:03:51.749Z,9.57
2023-06-04T15:06:20.017Z,5.88
2023-06-04T15:08:46.724Z,9.82
2023-06-04T15:11:13.122Z,6.63
2023-06-04T15:13:39.546Z,7.10
2023-06-04T15:16:06.320Z,5.30
2023-06-04T15:18:32.860Z,6.65
2023-06-04T15:20:59.487Z,8.45
2023-06-04T15:23:26.063Z,8.18
2023-06-04T15:25:52.491Z,8.38
2023-06-04T15:28:19.111Z,9.48
2023-06-04T15:30:45.635Z,8.40
2023-06-04T15:33:12.099Z,8.52
2023-06-04T15:35:38.468Z,10.45
2023-06-04T15:38:04.933Z,7.75
2023-06-04T15:40:31.368Z,7.35
2023-06-04T15:42:57.821Z,5.45
2023-06-04T15:45:25.704Z,7.60
2023-06-04T15:47:52.459Z,7.63
2023-06-04T15:50:19.140Z,9.55
2023-06-04T15:52:46.023Z,10.80
2023-06-04T15:55:12.944Z,10.05
2023-06-04T15:57:39.426Z,9.43
2023-06-04T16:00:06.340Z,8.90
2023-06-04T16:02:32.839Z,8.98
2023-06-04T16:04:59.280Z,7.68
2023-06-04T16:07:25.647Z,7.00
2023-06-04T16:09:52.057Z,8.50
2023-06-04T16:12:18.457Z,8.98
2023-06-04T16:14:44.895Z,8.02
2023-06-04T16:17:11.519Z,6.95
2023-06-04T16:19:38.055Z,11.57
2023-06-04T16:22:04.573Z,10.50
2023-06-04T16:24:31.401Z,8.32
2023-06-04T16:26:57.779Z,7.00
2023-06-04T16:29:24.205Z,8.48
2023-06-04T16:31:50.795Z,9.77
2023-06-04T16:34:17.266Z,10.30
2023-06-04T16:36:43.656Z,13.02
2023-06-04T16:39:11.735Z,6.65
2023-06-04T16:41:38.513Z,8.45
2023-06-04T16:44:05.079Z,5.00
2023-06-04T16:46:31.628Z,6.93
2023-06-04T16:48:58.033Z,5.93
2023-06-04T16:51:24.525Z,8.98
2023-06-04T16:53:50.932Z,5.85
2023-06-04T16:56:17.312Z,5.03
2023-06-04T16:58:45.469Z,9.63
2023-06-04T17:01:12.151Z,10.25
2023-06-04T17:03:38.946Z,6.35
2023-06-04T17:06:06.593Z,15.27
2023-06-04T17:08:33.306Z,10.80
2023-06-04T17:10:59.751Z,8.45
2023-06-04T17:13:26.181Z,17.88
2023-06-04T17:15:52.561Z,10.15
2023-06-04T17:18:19.018Z,10.07
2023-06-04T17:20:45.503Z,8.73
2023-06-04T17:23:19.448Z,13.63
2023-06-04T17:25:45.938Z,10.30
2023-06-04T17:28:12.378Z,13.43
2023-06-04T17:30:38.762Z,6.13
2023-06-04T17:33:05.176Z,7.80
2023-06-04T17:35:31.540Z,7.68
2023-06-04T17:37:57.979Z,7.22
2023-06-04T17:40:27.202Z,7.20
2023-06-04T17:42:54.002Z,8.23
2023-06-04T17:45:20.471Z,11.25
2023-06-04T17:47:47.863Z,9.40
2023-06-04T17:50:14.358Z,6.72
2023-06-04T17:52:40.910Z,9.45
2023-06-04T17:55:07.736Z,8.77
2023-06-04T17:57:34.186Z,8.48
2023-06-04T18:00:00.786Z,12.55
2023-06-04T18:02:27.327Z,12.82
2023-06-04T18:04:53.741Z,5.85
2023-06-04T18:07:21.211Z,9.15
2023-06-04T18:09:48.139Z,7.72
2023-06-04T18:12:15.757Z,9.18
2023-06-04T18:14:42.783Z,11.07
2023-06-04T18:17:09.211Z,10.60
2023-06-04T18:19:35.697Z,4.10
2023-06-04T18:22:02.237Z,8.27
2023-06-04T18:24:28.677Z,10.02
2023-06-04T18:26:55.932Z,11.25
2023-06-04T18:29:22.324Z,7.07
2023-06-04T18:31:48.974Z,7.97
2023-06-04T18:34:21.420Z,7.80
2023-06-04T18:36:54.374Z,11.00
2023-06-04T18:39:27.312Z,7.43
2023-06-04T18:41:55.995Z,7.32
2023-06-04T18:44:22.864Z,5.68
2023-06-04T18:46:49.330Z,9.25
2023-06-04T18:49:15.834Z,3.75
2023-06-04T18:51:45.094Z,7.90
2023-06-04T18:54:11.488Z,9.13
2023-06-04T18:56:37.897Z,10.80
2023-06-04T18:59:04.369Z,14.85
2023-06-04T19:01:31.162Z,15.48
2023-06-04T19:03:57.733Z,6.18
2023-06-04T19:06:24.226Z,12.55
2023-06-04T19:08:50.742Z,8.70
2023-06-04T19:11:17.277Z,8.18
2023-06-04T19:13:43.755Z,7.28
2023-06-04T19:16:13.445Z,9.35
2023-06-04T19:18:39.906Z,8.98
2023-06-04T19:21:06.394Z,8.18
2023-06-04T19:23:34.158Z,9.25
2023-06-04T19:26:00.833Z,8.25
2023-06-04T19:28:27.771Z,12.45
2023-06-04T19:30:54.280Z,5.82
2023-06-04T19:33:21.176Z,5.95
2023-06-04T19:35:48.242Z,7.68
2023-06-04T19:38:18.035Z,6.63
2023-06-04T19:40:44.405Z,3.70
2023-06-04T19:43:11.019Z,3.67
2023-06-04T19:45:37.912Z,4.70
2023-06-04T19:48:04.694Z,2.85
2023-06-04T19:50:31.179Z,3.72
2023-06-04T19:52:57.563Z,2.50
2023-06-04T19:55:24.050Z,3.83
2023-06-04T19:57:50.764Z,2.80
2023-06-04T20:00:17.252Z,3.85
2023-06-04T20:02:43.697Z,4.15
2023-06-04T20:05:10.852Z,3.55
2023-06-04T20:07:37.277Z,3.05
2023-06-04T20:10:03.987Z,6.88
2023-06-04T20:12:30.551Z,4.00
2023-06-04T20:14:57.000Z,4.90
2023-06-04T20:17:23.383Z,6.80
2023-06-04T20:19:49.899Z,2.60
2023-06-04T20:22:16.390Z,2.03
2023-06-04T20:24:46.118Z,3.40
2023-06-04T20:27:14.001Z,3.03
2023-06-04T20:29:41.052Z,2.92
2023-06-04T20:32:07.614Z,5.43
2023-06-04T20:34:34.021Z,3.17
2023-06-04T20:37:03.809Z,2.65
2023-06-04T20:39:34.968Z,2.17
2023-06-04T20:42:01.636Z,3.75
2023-06-04T20:44:29.508Z,7.18
2023-06-04T20:46:56.634Z,7.82
2023-06-04T20:49:23.131Z,4.32
2023-06-04T20:51:49.545Z,2.70
2023-06-04T20:54:16.213Z,4.47
2023-06-04T20:56:43.405Z,2.72
2023-06-04T20:59:09.773Z,3.97
2023-06-04T21:01:36.321Z,4.00
2023-06-04T21:04:04.384Z,2.70
2023-06-04T21:06:31.402Z,4.05
2023-06-04T21:08:57.825Z,4.60
2023-06-04T21:11:24.316Z,2.78
2023-06-04T21:13:50.777Z,4.88
2023-06-04T21:16:17.255Z,3.47
2023-06-04T21:18:43.722Z,3.42
2023-06-04T21:21:10.423Z,3.83
2023-06-04T21:23:38.168Z,4.43
2023-06-04T21:26:04.663Z,2.15
2023-06-04T21:28:31.042Z,3.85
2023-06-04T21:30:57.445Z,4.35
2023-06-04T21:33:24.912Z,3.00
2023-06-04T21:35:51.343Z,4.55
2023-06-04T21:38:17.984Z,6.82
2023-06-04T21:40:44.378Z,2.22
2023-06-04T21:43:10.889Z,3.75
2023-06-04T21:45:37.892Z,6.18
2023-06-04T21:48:05.079Z,4.78
2023-06-04T21:50:31.488Z,2.83
2023-06-04T21:52:57.913Z,4.70
2023-06-04T21:55:25.084Z,4.57
2023-06-04T21:57:51.486Z,3.88
2023-06-04T22:00:18.112Z,7.65
2023-06-04T22:02:44.587Z,3.97
2023-06-04T22:05:11.086Z,5.05
2023-06-04T22:07:37.793Z,3.92
2023-06-04T22:10:04.517Z,2.13
2023-06-04T22:12:30.978Z,3.78
2023-06-04T22:14:57.419Z,3.95
2023-06-04T22:17:23.842Z,4.07
2023-06-04T22:19:50.236Z,6.35
2023-06-04T22:22:16.639Z,4.75
2023-06-04T22:24:43.053Z,6.45
2023-06-04T22:27:09.444Z,5.70
2023-06-04T22:29:35.887Z,2.20
2023-06-04T22:32:02.392Z,2.45
2023-06-04T22:34:28.780Z,2.65
2023-06-04T22:36:55.181Z,3.95
2023-06-04T22:39:21.662Z,5.22
2023-06-04T22:41:48.073Z,4.15
2023-06-04T22:44:14.518Z,4.82
2023-06-04T22:46:40.992Z,4.90
2023-06-04T22:49:07.440Z,4.28
2023-06-04T22:51:33.980Z,5.30
2023-06-04T22:54:00.753Z,3.67
2023-06-04T22:56:27.262Z,3.08
2023-06-04T22:58:53.840Z,6.03
2023-06-04T23:01:20.499Z,2.97
2023-06-04T23:03:47.135Z,3.13
2023-06-04T23:06:13.551Z,4.78
2023-06-04T23:08:39.947Z,3.50
2023-06-04T23:11:06.539Z,4.15
2023-06-04T23:13:32.989Z,6.22
2023-06-04T23:15:59.504Z,5.07
2023-06-04T23:18:26.271Z,3.63
2023-06-04T23:20:52.856Z,4.00
2023-06-04T23:23:19.302Z,2.65
2023-06-04T23:25:45.786Z,3.10
2023-06-04T23:28:12.311Z,2.70
2023-06-04T23:30:38.741Z,4.63
2023-06-04T23:33:05.215Z,5.82
2023-06-04T23:35:31.627Z,3.17
2023-06-04T23:37:58.116Z,3.63
2023-06-04T23:40:24.565Z,4.80
2023-06-04T23:42:51.082Z,3.33
2023-06-04T23:45:17.551Z,3.38
2023-06-04T23:47:44.037Z,2.40
2023-06-04T23:50:10.642Z,3.40
2023-06-04T23:52:37.112Z,5.28
2023-06-04T23:55:03.603Z,4.43
2023-06-04T23:57:30.043Z,4.18
2023-06-04T23:59:56.503Z,4.47
